This is the latest recevied weather packets stored in our database for station/object KC2TER. If no packets are shown the sender has not sent any weather packets the latest 10 day(s).
| Time | Temp. | Humidity | Pressure | Rain* | Wind** | Luminosity | Snow |
|---|---|---|---|---|---|---|---|
| 1777911900 | 20° C | 38% | 1012.6 hPa | 0 mm | - | 786 W/m² | - |
| 1777911596 | 20.56° C | 41% | 1012.8 hPa | 0 mm | - | 566 W/m² | - |
| 1777911292 | 20° C | 41% | 1012.9 hPa | 0 mm | - | 742 W/m² | - |
| 1777910990 | 20° C | 40% | 1013 hPa | 0 mm | - | 744 W/m² | - |
| 1777910688 | 20° C | 40% | 1013.1 hPa | 0 mm | - | 774 W/m² | - |
| 1777910384 | 20° C | 39% | 1012.9 hPa | 0 mm | - | 787 W/m² | - |
| 1777910081 | 19.44° C | 41% | 1013.1 hPa | 0 mm | - | 765 W/m² | - |
| 1777909779 | 20° C | 39% | 1012.9 hPa | 0 mm | - | 550 W/m² | - |
| 1777909475 | 20° C | 42% | 1013.1 hPa | 0 mm | - | 765 W/m² | - |
| 1777909173 | 20° C | 41% | 1013.1 hPa | 0 mm | - | 739 W/m² | - |
| 1777908871 | 19.44° C | 42% | 1013.2 hPa | 0 mm | - | 724 W/m² | - |
| 1777908568 | 19.44° C | 42% | 1013.3 hPa | 0 mm | - | 707 W/m² | - |
| 1777908265 | 18.89° C | 43% | 1013.4 hPa | 0 mm | - | 692 W/m² | - |
| 1777907961 | 18.89° C | 41% | 1013.3 hPa | 0 mm | - | 679 W/m² | - |
| 1777907656 | 18.89° C | 43% | 1013.3 hPa | 0 mm | - | 678 W/m² | - |
| 1777907352 | 18.89° C | 43% | 1013.4 hPa | 0 mm | - | 674 W/m² | - |
| 1777907049 | 18.89° C | 43% | 1013.3 hPa | 0 mm | - | 652 W/m² | - |
| 1777906746 | 18.89° C | 44% | 1013.5 hPa | 0 mm | - | 651 W/m² | - |
| 1777906442 | 18.89° C | 43% | 1013.5 hPa | 0 mm | - | 632 W/m² | - |
| 1777906139 | 18.33° C | 43% | 1013.8 hPa | 0 mm | - | 631 W/m² | - |
| 1777905836 | 18.33° C | 43% | 1013.6 hPa | 0 mm | - | 620 W/m² | - |
| 1777905533 | 18.89° C | 42% | 1013.7 hPa | 0 mm | - | 604 W/m² | - |
| 1777905230 | 18.33° C | 43% | 1013.6 hPa | 0 mm | - | 106 W/m² | - |
| 1777904927 | 17.78° C | 44% | 1013.7 hPa | 0 mm | - | 243 W/m² | - |
| 1777904624 | 17.78° C | 44% | 1013.9 hPa | 0 mm | - | 187 W/m² | - |
* Rain latest hour (hover to see other rain measurements)
** Current wind speed in m/s (hover to see current wind gust speed)